Time;durP1;ratioP1;P1;durP2;ratioP2;P2;SDS_P1;SDS_P2;PMS_P1;PMS_P2;Temp;Humidity;BMP_temperature;BMP_pressure;BME280_temperature;BME280_humidity;BME280_pressure;Samples;Min_cycle;Max_cycle;Signal;HPM_P1;HPM_P2
2022/04/26 03:39:47;;;;;;;66.17;38.30;;;;;;;7.78;95.93;98744.33;4093320;86;21055;-89
2022/04/26 03:45:49;;;;;;;65.52;38.35;;;;;;;7.78;95.93;98744.33;4024443;87;21681;-89
2022/04/26 03:51:55;;;;;;;72.75;39.40;;;;;;;7.83;96.28;98752.19;4026638;87;21027;-88
2022/04/26 03:57:54;;;;;;;75.45;40.40;;;;;;;7.86;96.36;98763.16;4038561;85;21091;-86
2022/04/26 04:03:56;;;;;;;68.33;39.23;;;;;;;7.82;96.20;98765.05;4046664;85;21409;-89
2022/04/26 04:09:58;;;;;;;65.72;37.58;;;;;;;7.79;96.41;98780.76;4029675;86;21572;-88
2022/04/26 04:15:59;;;;;;;67.87;38.53;;;;;;;7.79;96.48;98785.41;4103503;84;21075;-88
2022/04/26 04:22:01;;;;;;;61.00;35.92;;;;;;;7.78;96.55;98785.98;4094580;85;21055;-87
2022/04/26 04:28:03;;;;;;;63.30;35.98;;;;;;;7.76;96.50;98798.40;4102415;85;21456;-91
2022/04/26 04:34:06;;;;;;;58.65;35.48;;;;;;;7.80;96.73;98802.76;4093494;85;21119;-85
2022/04/26 04:40:09;;;;;;;52.00;30.97;;;;;;;7.84;96.78;98810.45;4114383;85;21159;-88
2022/04/26 04:46:11;;;;;;;48.65;30.57;;;;;;;7.86;96.81;98809.48;4110641;85;21582;-90
2022/04/26 04:52:12;;;;;;;51.70;31.37;;;;;;;7.86;96.83;98819.03;4067960;85;21048;-89
2022/04/26 04:58:14;;;;;;;61.53;36.42;;;;;;;7.87;96.82;98828.80;4077964;85;21128;-87
2022/04/26 05:04:15;;;;;;;62.73;34.23;;;;;;;7.81;96.35;98833.53;4073854;85;21167;-87
2022/04/26 05:10:17;;;;;;;55.78;33.85;;;;;;;7.79;96.86;98835.26;4052758;85;21094;-89
2022/04/26 05:16:18;;;;;;;57.90;33.98;;;;;;;7.81;97.01;98838.98;4081498;85;21123;-87
2022/04/26 05:22:20;;;;;;;66.00;37.58;;;;;;;7.84;96.88;98848.59;4084127;85;21388;-88
2022/04/26 05:28:22;;;;;;;66.00;36.45;;;;;;;7.90;97.15;98849.08;4070171;85;22155;-87
2022/04/26 05:34:23;;;;;;;64.40;36.55;;;;;;;7.93;97.22;98864.14;4069453;85;22007;-90
2022/04/26 05:40:25;;;;;;;61.92;34.38;;;;;;;7.92;96.95;98872.69;4049330;85;21357;-87
2022/04/26 05:46:27;;;;;;;64.85;37.63;;;;;;;7.98;96.98;98878.05;4075346;85;21127;-88
2022/04/26 05:52:28;;;;;;;67.60;40.15;;;;;;;8.00;97.32;98884.71;4068100;85;21130;-88
2022/04/26 05:58:29;;;;;;;75.92;40.28;;;;;;;8.08;97.16;98891.08;4067120;85;21727;-88
2022/04/26 06:04:30;;;;;;;69.27;38.48;;;;;;;8.09;97.23;98894.05;4084593;85;21387;-92
2022/04/26 06:10:32;;;;;;;73.87;39.00;;;;;;;8.14;96.87;98896.48;4091851;85;21811;-88
2022/04/26 06:16:33;;;;;;;59.20;36.58;;;;;;;8.20;97.17;98901.84;4108840;85;21127;-89
2022/04/26 06:22:35;;;;;;;62.95;38.08;;;;;;;8.30;97.23;98896.41;4085860;85;21073;-87
2022/04/26 06:28:36;;;;;;;64.47;37.48;;;;;;;8.34;96.99;98903.50;4109914;84;21078;-87
2022/04/26 06:34:37;;;;;;;61.08;37.25;;;;;;;8.47;96.98;98909.58;4115775;84;21106;-89
2022/04/26 06:40:39;;;;;;;66.70;37.35;;;;;;;8.44;96.31;98907.58;4099254;84;21493;-89
2022/04/26 06:46:40;;;;;;;67.97;38.35;;;;;;;8.53;96.95;98908.12;4145816;84;21106;-90
2022/04/26 06:52:42;;;;;;;59.77;36.58;;;;;;;8.64;96.78;98906.38;4223611;82;47012;-89
2022/04/26 06:58:43;;;;;;;64.32;38.48;;;;;;;8.70;96.28;98915.83;4233302;82;21720;-88
2022/04/26 07:04:44;;;;;;;64.85;38.55;;;;;;;8.77;96.54;98918.09;4227251;82;21018;-88
2022/04/26 07:10:46;;;;;;;74.03;37.70;;;;;;;8.88;96.50;98915.56;4232524;82;22485;-89
2022/04/26 07:16:53;;;;;;;61.18;37.40;;;;;;;8.97;96.30;98922.32;4241459;82;21108;-86
2022/04/26 07:22:51;;;;;;;55.40;35.23;;;;;;;9.07;96.05;98931.27;4242142;81;21050;-87
2022/04/26 07:28:52;;;;;;;55.78;36.28;;;;;;;9.12;95.83;98934.27;4226486;82;21416;-88
2022/04/26 07:34:53;;;;;;;56.73;34.23;;;;;;;9.20;95.42;98939.48;4241870;82;21150;-86
2022/04/26 07:40:55;;;;;;;55.30;34.98;;;;;;;9.38;95.61;98938.39;4217869;82;21035;-87
2022/04/26 07:46:56;;;;;;;52.83;34.35;;;;;;;9.51;95.27;98942.47;4228354;82;21114;-93
2022/04/26 07:53:00;;;;;;;47.40;29.63;;;;;;;9.67;94.53;98942.30;4217259;82;21672;-86
2022/04/26 07:59:03;;;;;;;46.83;30.37;;;;;;;9.91;94.55;98941.28;4191932;83;21100;-88
2022/04/26 08:05:05;;;;;;;37.15;26.68;;;;;;;10.21;93.86;98943.41;4235717;82;21073;-87
2022/04/26 08:11:11;;;;;;;42.40;25.68;;;;;;;10.56;93.51;98950.65;4229138;82;21094;-89
2022/04/26 08:17:11;;;;;;;34.10;22.90;;;;;;;10.88;93.20;98963.29;4242304;82;21088;-87
2022/04/26 08:23:13;;;;;;;37.55;22.98;;;;;;;11.10;92.27;98960.95;4230484;82;21374;-90
2022/04/26 08:29:14;;;;;;;35.88;22.45;;;;;;;11.49;91.43;98962.03;4235158;82;21074;-88
2022/04/26 08:35:23;;;;;;;31.90;23.45;;;;;;;11.62;90.53;98973.47;4239377;82;21118;-88
2022/04/26 08:41:24;;;;;;;32.03;23.40;;;;;;;11.62;89.07;98977.58;4215326;82;22041;-90
2022/04/26 08:53:46;;;;;;;30.23;22.42;;;;;;;11.86;88.21;98976.38;4222141;82;21064;-87
2022/04/26 08:59:50;;;;;;;40.15;26.05;;;;;;;11.93;87.92;98974.27;4235045;82;21085;-87
2022/04/26 09:06:10;;;;;;;34.27;22.55;;;;;;;12.01;84.85;98981.37;4221597;82;22328;-90
2022/04/26 09:12:15;;;;;;;29.95;20.37;;;;;;;12.12;86.38;98975.34;4203581;83;21064;-87
2022/04/26 09:18:30;;;;;;;29.75;20.00;;;;;;;12.35;85.96;98984.86;4193789;83;21052;-88
2022/04/26 09:24:37;;;;;;;29.50;19.92;;;;;;;12.40;83.48;98980.95;4241411;82;21070;-91
2022/04/26 09:30:39;;;;;;;28.47;19.00;;;;;;;12.32;83.94;98993.07;4224382;82;22101;-87
2022/04/26 09:36:50;;;;;;;25.55;17.80;;;;;;;12.31;83.89;98990.91;4224600;82;21094;-89
2022/04/26 09:42:52;;;;;;;32.28;20.60;;;;;;;12.58;83.55;98992.77;4235027;82;21055;-90
2022/04/26 09:48:53;;;;;;;24.75;17.37;;;;;;;12.60;81.94;98992.59;4238993;82;21036;-88
2022/04/26 09:54:55;;;;;;;25.50;18.67;;;;;;;12.83;81.48;98989.49;4234189;82;21678;-90
2022/04/26 10:01:01;;;;;;;25.17;16.07;;;;;;;12.72;80.22;98987.91;4249920;82;21017;-89
2022/04/26 10:07:08;;;;;;;30.52;18.37;;;;;;;12.83;80.22;98986.75;4162643;83;21070;-91
2022/04/26 10:19:41;;;;;;;23.75;16.70;;;;;;;12.83;77.95;98979.08;4153446;84;21387;-90
2022/04/26 10:26:23;;;;;;;22.42;15.63;;;;;;;12.97;74.96;98981.27;4258500;82;21038;-89
2022/04/26 10:32:40;;;;;;;22.75;16.55;;;;;;;12.98;74.38;98981.48;4251293;82;20993;-88
2022/04/26 10:38:41;;;;;;;25.43;15.70;;;;;;;12.95;76.09;98984.22;4251406;82;21035;-90
2022/04/26 10:44:45;;;;;;;25.10;17.50;;;;;;;12.91;76.37;98993.83;4277884;82;21777;-88
2022/04/26 10:50:46;;;;;;;23.47;15.25;;;;;;;12.96;76.15;98989.91;4244135;82;21018;-88
2022/04/26 10:56:48;;;;;;;23.02;15.43;;;;;;;12.99;75.70;98991.30;4250336;82;21035;-87
2022/04/26 11:02:50;;;;;;;23.98;16.50;;;;;;;12.99;75.23;98990.50;4173178;82;21587;-87
2022/04/26 11:09:10;;;;;;;18.82;13.83;;;;;;;13.11;74.67;98993.69;4152729;84;21077;-93
2022/04/26 11:15:21;;;;;;;20.30;13.43;;;;;;;13.15;73.39;98997.23;4151961;84;21130;-92
2022/04/26 11:21:24;;;;;;;18.35;13.58;;;;;;;13.08;73.58;98995.84;4122669;85;21067;-88
2022/04/26 11:33:52;;;;;;;19.40;12.78;;;;;;;13.17;73.72;99006.47;4149947;84;21074;-93
2022/04/26 11:39:53;;;;;;;26.12;17.82;;;;;;;13.19;73.31;99005.46;4151162;84;21098;-90
2022/04/26 11:45:57;;;;;;;20.70;13.83;;;;;;;13.22;72.54;99008.80;4139794;84;21633;-89
2022/04/26 11:52:00;;;;;;;19.98;13.88;;;;;;;13.18;72.86;99019.02;4141948;84;21042;-87
2022/04/26 11:58:13;;;;;;;21.33;15.75;;;;;;;13.20;72.75;99018.05;4100208;85;21102;-87
2022/04/26 12:04:14;;;;;;;22.73;15.43;;;;;;;13.25;72.65;99018.43;4191422;83;21119;-88
2022/04/26 12:10:33;;;;;;;24.02;16.67;;;;;;;13.20;72.47;99020.80;4267921;82;21054;-90
2022/04/26 12:16:44;;;;;;;24.80;16.87;;;;;;;13.11;72.29;99020.41;4245945;82;21121;-89
2022/04/26 12:22:48;;;;;;;29.18;17.23;;;;;;;13.06;71.91;99017.42;4244502;82;21162;-93
2022/04/26 12:28:51;;;;;;;20.77;13.45;;;;;;;13.09;71.78;99013.13;4246882;82;21611;-94
2022/04/26 12:35:01;;;;;;;20.52;13.48;;;;;;;13.31;71.65;99018.84;4248310;82;21070;-91
2022/04/26 12:41:06;;;;;;;19.55;13.45;;;;;;;13.34;71.80;99017.45;4242955;82;21007;-90
2022/04/26 12:53:34;;;;;;;20.43;14.50;;;;;;;13.40;70.42;99015.11;4239479;82;21069;-93
2022/04/26 12:59:36;;;;;;;22.02;14.98;;;;;;;13.33;69.97;99016.47;4190309;83;21703;-91
2022/04/26 13:05:47;;;;;;;24.35;16.35;;;;;;;13.19;70.00;99010.37;4165483;84;21084;-89
2022/04/26 13:11:49;;;;;;;28.60;19.23;;;;;;;13.18;70.25;99003.90;4165213;84;21124;-86
2022/04/26 13:17:50;;;;;;;27.50;17.92;;;;;;;13.07;69.58;99009.97;4161972;84;21041;-89
2022/04/26 13:23:54;;;;;;;28.90;18.65;;;;;;;12.95;69.76;99014.45;4188547;83;21033;-92
2022/04/26 13:29:55;;;;;;;22.30;16.30;;;;;;;13.03;69.26;99014.08;4184285;83;21057;-91
2022/04/26 13:35:56;;;;;;;25.72;17.30;;;;;;;13.14;70.00;99016.87;4177294;84;21043;-90
2022/04/26 13:41:58;;;;;;;27.82;17.70;;;;;;;13.28;69.50;99019.63;4160030;84;21677;-90
2022/04/26 13:48:04;;;;;;;25.55;18.23;;;;;;;13.38;69.59;99020.20;4159767;84;21650;-88
2022/04/26 13:54:05;;;;;;;28.50;18.70;;;;;;;13.45;69.22;99022.97;4188457;83;21062;-87
2022/04/26 14:00:08;;;;;;;25.52;17.50;;;;;;;13.31;68.98;99025.11;4163179;84;21043;-89
2022/04/26 14:06:12;;;;;;;28.92;20.48;;;;;;;13.35;68.56;99024.53;4168209;84;21054;-88
2022/04/26 14:12:18;;;;;;;26.37;18.48;;;;;;;13.16;68.28;99029.61;4177333;84;21050;-88
2022/04/26 14:24:38;;;;;;;26.93;17.30;;;;;;;12.91;68.41;99026.00;4171904;84;21409;-88
2022/04/26 14:30:40;;;;;;;29.35;19.23;;;;;;;12.84;68.64;99024.63;4175715;84;21090;-90
2022/04/26 14:36:42;;;;;;;26.12;18.67;;;;;;;12.87;68.71;99026.59;4180210;83;21053;-87
2022/04/26 14:42:46;;;;;;;25.27;18.37;;;;;;;12.70;68.14;99028.09;4184947;83;21081;-90
2022/04/26 14:48:47;;;;;;;23.22;16.55;;;;;;;12.63;68.54;99026.14;4186243;83;21089;-90
2022/04/26 14:54:48;;;;;;;24.63;17.50;;;;;;;12.64;68.87;99023.59;4161967;84;21059;-89
2022/04/26 15:00:51;;;;;;;22.85;15.90;;;;;;;12.80;68.60;99027.93;4179464;84;21039;-88
2022/04/26 15:06:52;;;;;;;24.92;17.07;;;;;;;12.84;68.21;99027.38;4166311;84;21054;-87
2022/04/26 15:19:15;;;;;;;22.77;14.47;;;;;;;12.49;68.03;99019.23;4165211;84;21063;-88
2022/04/26 15:25:16;;;;;;;20.02;14.28;;;;;;;12.51;68.06;99020.21;4171612;83;22493;-89
2022/04/26 15:31:18;;;;;;;22.65;14.87;;;;;;;12.51;67.74;99036.08;4177451;84;21038;-87
2022/04/26 15:37:20;;;;;;;19.65;14.80;;;;;;;12.40;67.39;99033.87;4177864;84;21075;-91
2022/04/26 15:43:23;;;;;;;23.45;14.63;;;;;;;12.15;67.59;99037.08;4183663;83;21116;-89
2022/04/26 15:49:25;;;;;;;18.10;12.93;;;;;;;12.02;67.62;99042.72;4168129;84;21043;-87
2022/04/26 15:55:26;;;;;;;19.42;13.80;;;;;;;11.96;67.73;99050.31;4177041;84;21491;-88
2022/04/26 16:01:28;;;;;;;20.20;13.20;;;;;;;11.93;67.36;99045.59;4180764;83;21553;-90
2022/04/26 16:07:29;;;;;;;21.10;12.53;;;;;;;11.84;67.55;99040.42;4196531;83;21085;-89
2022/04/26 16:26:15;;;;;;;19.85;11.88;;;;;;;11.55;67.57;99056.45;4185397;83;21012;-94
2022/04/26 16:32:16;;;;;;;16.93;11.20;;;;;;;11.45;67.61;99050.89;4196733;83;21039;-88
2022/04/26 16:38:17;;;;;;;17.52;11.00;;;;;;;11.33;67.62;99054.69;4202071;83;21549;-87
2022/04/26 16:44:23;;;;;;;14.50;10.23;;;;;;;11.32;67.75;99059.98;4195149;83;22301;-87
2022/04/26 16:50:22;;;;;;;19.75;10.88;;;;;;;11.24;67.86;99059.70;4190520;83;21074;-90
2022/04/26 16:56:24;;;;;;;17.15;11.05;;;;;;;11.15;67.91;99061.17;4184561;83;21543;-87
2022/04/26 17:02:26;;;;;;;16.02;10.32;;;;;;;11.02;67.90;99066.14;4194423;83;22134;-91
2022/04/26 17:08:28;;;;;;;14.87;10.18;;;;;;;10.91;68.13;99063.30;4203781;83;21635;-90
2022/04/26 17:14:31;;;;;;;15.68;10.45;;;;;;;10.74;68.36;99074.05;4212829;83;21076;-88
2022/04/26 17:20:34;;;;;;;14.28;10.05;;;;;;;10.52;68.50;99077.08;4212231;83;21103;-89
2022/04/26 17:26:36;;;;;;;18.92;10.95;;;;;;;10.37;68.87;99084.91;4214656;83;21072;-89
2022/04/26 17:32:37;;;;;;;16.55;11.20;;;;;;;10.23;69.07;99090.20;4204338;83;21944;-90
2022/04/26 17:38:39;;;;;;;17.60;10.95;;;;;;;10.11;69.54;99091.80;4203746;83;21048;-91
2022/04/26 17:44:40;;;;;;;22.45;15.35;;;;;;;10.00;69.67;99100.39;4203142;83;21029;-88
2022/04/26 17:50:45;;;;;;;24.75;15.30;;;;;;;9.89;69.93;99104.11;4217616;83;22002;-90
2022/04/26 17:56:47;;;;;;;18.48;10.78;;;;;;;9.78;70.19;99116.82;4218032;83;21069;-88
2022/04/26 18:02:49;;;;;;;18.32;10.68;;;;;;;9.64;70.33;99120.69;4206743;83;21051;-89
2022/04/26 18:08:50;;;;;;;16.32;10.88;;;;;;;9.48;70.42;99130.38;4194475;83;21144;-88
2022/04/26 18:14:54;;;;;;;23.47;10.43;;;;;;;9.33;70.63;99129.33;4191948;83;21067;-92
2022/04/26 18:20:58;;;;;;;18.75;10.43;;;;;;;9.24;70.82;99142.44;4241409;82;21695;-91
2022/04/26 18:27:00;;;;;;;22.55;12.82;;;;;;;9.16;71.08;99146.19;4194930;83;21116;-90
2022/04/26 18:33:02;;;;;;;30.68;14.50;;;;;;;9.11;71.36;99154.67;4195706;83;21079;-89
2022/04/26 18:39:08;;;;;;;48.25;22.73;;;;;;;9.03;71.54;99159.01;4191487;83;21068;-88
2022/04/26 18:45:08;;;;;;;36.73;19.65;;;;;;;8.99;71.77;99171.81;4189030;83;21652;-88
2022/04/26 18:51:10;;;;;;;25.23;12.82;;;;;;;8.90;72.07;99172.02;4198549;84;21020;-88
2022/04/26 18:57:12;;;;;;;20.55;12.63;;;;;;;8.81;72.11;99176.11;4201252;83;21058;-90
2022/04/26 19:03:13;;;;;;;29.90;15.95;;;;;;;8.67;72.53;99182.62;4197193;83;21012;-88
2022/04/26 19:09:15;;;;;;;45.83;23.38;;;;;;;8.59;72.99;99194.53;4198081;83;21044;-89
2022/04/26 19:15:17;;;;;;;36.10;20.55;;;;;;;8.52;73.39;99190.30;4204667;83;21039;-90
2022/04/26 19:21:18;;;;;;;23.85;13.35;;;;;;;8.40;73.65;99189.84;4202328;83;21064;-89
2022/04/26 19:27:20;;;;;;;21.62;13.35;;;;;;;8.16;73.95;99194.10;4206067;83;21132;-88
2022/04/26 19:33:22;;;;;;;24.82;14.68;;;;;;;7.97;74.51;99200.87;4191327;83;21132;-90
2022/04/26 19:39:30;;;;;;;28.75;16.15;;;;;;;7.87;75.34;99195.38;4198952;83;21578;-89
2022/04/26 19:45:32;;;;;;;49.25;25.50;;;;;;;7.78;75.85;99198.05;4215860;83;21032;-87
2022/04/26 19:51:35;;;;;;;54.05;25.82;;;;;;;7.69;76.09;99196.05;4209994;83;22072;-88
2022/04/26 19:57:36;;;;;;;55.03;27.62;;;;;;;7.57;76.50;99198.30;4198096;83;21048;-88
2022/04/26 20:03:37;;;;;;;59.33;25.50;;;;;;;7.50;76.75;99190.52;4178898;83;22400;-91
2022/04/26 20:09:39;;;;;;;50.38;26.33;;;;;;;7.41;77.48;99192.03;4165913;84;21038;-88
2022/04/26 20:15:40;;;;;;;70.40;31.68;;;;;;;7.30;77.12;99191.52;4161184;83;21043;-89
2022/04/26 20:21:43;;;;;;;54.05;26.12;;;;;;;7.12;77.76;99192.97;4161054;84;21042;-87
2022/04/26 20:34:05;;;;;;;45.15;24.70;;;;;;;6.98;78.83;99203.47;4168308;84;21084;-88
2022/04/26 20:40:08;;;;;;;44.10;25.12;;;;;;;6.89;78.56;99203.59;4174031;84;21529;-88
2022/04/26 20:46:09;;;;;;;50.33;27.13;;;;;;;6.82;79.16;99203.41;4165848;84;21695;-89
2022/04/26 20:52:12;;;;;;;52.73;25.68;;;;;;;6.58;79.30;99210.84;4170011;83;21121;-87
2022/04/26 20:58:15;;;;;;;59.67;31.60;;;;;;;6.46;79.51;99213.56;4164759;84;22251;-88
2022/04/26 21:04:16;;;;;;;66.67;36.28;;;;;;;6.28;79.85;99213.02;4184738;82;22267;-88
2022/04/26 21:10:18;;;;;;;53.87;31.45;;;;;;;6.07;79.86;99221.31;4131408;84;21055;-88
2022/04/26 21:16:21;;;;;;;44.67;26.33;;;;;;;5.88;80.19;99224.34;4158588;83;21058;-89
2022/04/26 21:22:22;;;;;;;58.05;31.90;;;;;;;5.72;80.94;99220.66;4160781;84;21347;-88
2022/04/26 21:28:23;;;;;;;49.08;27.42;;;;;;;5.66;81.17;99224.73;4172787;84;21063;-90
2022/04/26 21:34:26;;;;;;;60.00;32.45;;;;;;;5.57;80.40;99232.98;4164095;84;21600;-91
2022/04/26 21:40:28;;;;;;;57.85;32.38;;;;;;;5.48;81.69;99232.84;4179893;84;21329;-88
2022/04/26 21:46:29;;;;;;;52.43;29.82;;;;;;;5.37;81.24;99235.75;4152579;84;21071;-91
2022/04/26 21:52:32;;;;;;;47.95;28.52;;;;;;;5.20;81.79;99244.06;4205539;82;21613;-86
2022/04/26 21:58:33;;;;;;;50.58;31.62;;;;;;;5.07;82.60;99250.55;4209247;82;21047;-86
2022/04/26 22:04:35;;;;;;;59.95;34.20;;;;;;;4.98;82.44;99253.33;4230656;82;21060;-87
2022/04/26 22:10:40;;;;;;;67.72;38.95;;;;;;;4.88;82.57;99250.23;4240083;82;21017;-89
2022/04/26 22:16:42;;;;;;;57.17;30.80;;;;;;;4.78;82.59;99263.07;4232833;82;21068;-87
2022/04/26 22:22:44;;;;;;;65.57;36.08;;;;;;;4.68;83.16;99259.96;4230767;82;21790;-88
2022/04/26 22:28:46;;;;;;;69.20;36.80;;;;;;;4.60;83.06;99259.45;4210311;83;21071;-87
2022/04/26 22:34:48;;;;;;;63.02;37.70;;;;;;;4.53;83.37;99275.43;4208029;83;22149;-89
2022/04/26 22:40:50;;;;;;;66.62;36.58;;;;;;;4.42;83.61;99274.22;4204932;83;21987;-86
2022/04/26 22:46:52;;;;;;;71.90;37.90;;;;;;;4.31;83.94;99275.16;4237339;82;21114;-90
2022/04/26 22:52:53;;;;;;;76.90;41.28;;;;;;;4.25;83.82;99272.95;4243619;82;21539;-89
2022/04/26 22:58:55;;;;;;;70.22;37.53;;;;;;;4.15;84.08;99261.92;4248434;82;21049;-86
2022/04/26 23:04:57;;;;;;;76.77;38.20;;;;;;;4.13;84.43;99269.61;4241963;82;21505;-87
2022/04/26 23:10:58;;;;;;;76.95;39.10;;;;;;;4.08;84.74;99278.45;4226395;82;22046;-92
2022/04/26 23:17:01;;;;;;;76.02;40.85;;;;;;;4.00;84.63;99273.87;4233065;82;22459;-90
2022/04/26 23:23:04;;;;;;;67.32;38.75;;;;;;;3.88;84.71;99272.41;4238170;82;21058;-88
2022/04/26 23:29:07;;;;;;;68.65;39.03;;;;;;;3.75;84.52;99268.78;4229659;82;21042;-88
2022/04/26 23:41:28;;;;;;;112.08;53.45;;;;;;;3.58;85.70;99272.09;4243441;82;21048;-87
2022/04/26 23:47:33;;;;;;;75.55;42.03;;;;;;;3.56;85.77;99275.13;4232819;82;21049;-88
2022/04/26 23:53:34;;;;;;;70.00;36.65;;;;;;;3.52;86.00;99273.38;4235539;82;21110;-88
